createdAt,value
2018-06-18T00:02:20.367Z,99112.18
2018-06-18T00:04:48.870Z,99109.63
2018-06-18T00:07:17.303Z,99114.48
2018-06-18T00:09:45.748Z,99115.14
2018-06-18T00:12:14.277Z,99110.02
2018-06-18T00:14:42.800Z,99115.42
2018-06-18T00:17:11.336Z,99125.73
2018-06-18T00:19:40.486Z,99121.12
2018-06-18T00:22:13.037Z,99115.71
2018-06-18T00:24:41.522Z,99118.23
2018-06-18T00:27:09.962Z,99117.71
2018-06-18T00:29:38.483Z,99115.58
2018-06-18T00:32:07.309Z,99106.06
2018-06-18T00:34:35.901Z,99103.26
2018-06-18T00:37:04.366Z,99103.70
2018-06-18T00:39:32.850Z,99107.39
2018-06-18T00:42:01.435Z,99098.72
2018-06-18T00:44:29.913Z,99108.81
2018-06-18T00:46:58.581Z,99108.11
2018-06-18T00:49:27.534Z,99103.67
2018-06-18T00:51:56.061Z,99113.25
2018-06-18T00:54:24.522Z,99109.97
2018-06-18T00:56:52.925Z,99115.30
2018-06-18T00:59:21.512Z,99115.70
2018-06-18T01:01:49.986Z,99115.50
2018-06-18T01:04:18.370Z,99121.52
2018-06-18T01:06:46.766Z,99121.43
2018-06-18T01:09:15.230Z,99119.55
2018-06-18T01:11:43.752Z,99121.91
2018-06-18T01:14:12.408Z,99123.46
2018-06-18T01:16:41.044Z,99125.66
2018-06-18T01:19:09.511Z,99115.63
2018-06-18T01:21:38.011Z,99122.16
2018-06-18T01:24:15.190Z,99115.75
2018-06-18T01:26:43.711Z,99120.00
2018-06-18T01:29:12.113Z,99120.82
2018-06-18T01:31:40.674Z,99124.87
2018-06-18T01:34:18.262Z,99113.44
2018-06-18T01:36:46.702Z,99110.52
2018-06-18T01:39:15.216Z,99102.61
2018-06-18T01:41:44.051Z,99108.22
2018-06-18T01:44:13.157Z,99115.27
2018-06-18T01:46:41.678Z,99126.14
2018-06-18T01:49:10.126Z,99115.61
2018-06-18T01:51:38.789Z,99101.52
2018-06-18T01:54:07.252Z,99097.34
2018-06-18T02:02:44.202Z,99114.24
2018-06-18T02:05:12.562Z,99115.38
2018-06-18T02:07:41.061Z,99110.72
2018-06-18T02:10:10.226Z,99110.94
2018-06-18T02:12:39.098Z,99127.81
2018-06-18T02:15:07.499Z,99116.48
2018-06-18T02:17:35.981Z,99115.05
2018-06-18T02:20:04.829Z,99115.56
2018-06-18T02:22:33.286Z,99115.42
2018-06-18T02:25:01.772Z,99107.55
2018-06-18T02:27:35.591Z,99110.73
2018-06-18T02:31:09.127Z,99117.10
2018-06-18T02:33:42.682Z,99112.52
2018-06-18T02:36:16.302Z,99119.94
2018-06-18T02:38:49.950Z,99126.14
2018-06-18T02:41:18.430Z,99126.48
2018-06-18T02:43:46.828Z,99126.14
2018-06-18T02:46:15.193Z,99120.64
2018-06-18T02:48:43.578Z,99127.05
2018-06-18T02:51:11.961Z,99121.45
2018-06-18T02:53:40.446Z,99117.32
2018-06-18T02:56:08.835Z,99123.80
2018-06-18T02:58:37.350Z,99132.16
2018-06-18T03:01:05.855Z,99134.72
2018-06-18T03:03:34.266Z,99142.67
2018-06-18T03:06:03.042Z,99144.65
2018-06-18T03:08:31.441Z,99145.44
2018-06-18T03:11:00.034Z,99143.37
2018-06-18T03:13:28.558Z,99149.05
2018-06-18T03:15:56.986Z,99152.51
2018-06-18T03:18:30.734Z,99143.21
2018-06-18T03:21:04.522Z,99146.28
2018-06-18T03:23:38.426Z,99155.18
2018-06-18T03:27:14.722Z,99154.02
2018-06-18T03:29:43.202Z,99163.41
2018-06-18T03:32:16.806Z,99153.99
2018-06-18T03:34:45.327Z,99156.03
2018-06-18T03:37:16.089Z,99154.58
2018-06-18T03:39:44.453Z,99153.83
2018-06-18T03:42:12.931Z,99146.33
2018-06-18T03:44:51.018Z,99146.61
2018-06-18T03:47:23.347Z,99154.45
2018-06-18T03:49:51.803Z,99153.83
2018-06-18T03:52:20.662Z,99154.83
2018-06-18T03:54:50.447Z,99160.69
2018-06-18T03:57:19.502Z,99169.20
2018-06-18T03:59:48.317Z,99165.11
2018-06-18T04:02:42.255Z,99161.78
2018-06-18T04:05:16.272Z,99170.08
2018-06-18T04:07:49.965Z,99175.63
2018-06-18T04:10:23.624Z,99176.50
2018-06-18T04:12:52.047Z,99183.76
2018-06-18T04:15:20.546Z,99179.78
2018-06-18T04:17:49.122Z,99182.19
2018-06-18T04:20:17.652Z,99177.17
2018-06-18T04:22:46.124Z,99172.34
2018-06-18T04:25:14.579Z,99161.50
2018-06-18T04:27:43.049Z,99168.76
2018-06-18T04:30:11.626Z,99179.33
2018-06-18T04:32:40.104Z,99172.30
2018-06-18T04:35:10.092Z,99177.56
2018-06-18T04:37:38.558Z,99178.97
2018-06-18T04:40:08.061Z,99173.16
2018-06-18T04:42:41.798Z,99173.88
2018-06-18T04:45:15.626Z,99177.97
2018-06-18T04:47:49.124Z,99177.42
2018-06-18T04:50:22.653Z,99182.94
2018-06-18T04:52:51.106Z,99176.86
2018-06-18T04:55:19.519Z,99184.36
2018-06-18T04:57:48.054Z,99187.85
2018-06-18T05:00:22.987Z,99183.85
2018-06-18T05:02:51.369Z,99172.64
2018-06-18T05:05:19.757Z,99169.72
2018-06-18T05:07:51.691Z,99170.88
2018-06-18T05:10:24.856Z,99167.95
2018-06-18T05:12:53.823Z,99167.92
2018-06-18T05:15:26.265Z,99174.78
2018-06-18T05:17:54.798Z,99180.25
2018-06-18T05:20:23.306Z,99179.77
2018-06-18T05:22:51.718Z,99177.48
2018-06-18T05:25:20.146Z,99176.50
2018-06-18T05:27:48.574Z,99175.25
2018-06-18T05:30:19.798Z,99173.99
2018-06-18T05:32:48.230Z,99168.92
2018-06-18T05:35:16.725Z,99170.53
2018-06-18T05:38:23.809Z,99183.78
2018-06-18T05:40:52.289Z,99188.56
2018-06-18T05:43:20.778Z,99187.92
2018-06-18T05:45:49.266Z,99190.95
2018-06-18T05:48:17.811Z,99188.23
2018-06-18T05:50:46.218Z,99181.37
2018-06-18T05:53:14.699Z,99186.15
2018-06-18T05:55:43.187Z,99187.38
2018-06-18T05:58:11.778Z,99191.89
2018-06-18T06:00:40.203Z,99188.16
2018-06-18T06:03:08.843Z,99187.91
2018-06-18T06:05:37.379Z,99193.36
2018-06-18T06:08:05.903Z,99201.50
2018-06-18T06:10:34.357Z,99203.36
2018-06-18T06:13:02.869Z,99208.36
2018-06-18T06:15:31.454Z,99210.19
2018-06-18T06:18:00.150Z,99211.41
2018-06-18T06:20:28.584Z,99210.49
2018-06-18T06:22:57.110Z,99204.20
2018-06-18T06:25:25.487Z,99210.68
2018-06-18T06:27:54.038Z,99207.41
2018-06-18T06:30:22.622Z,99211.28
2018-06-18T06:32:51.786Z,99210.92
2018-06-18T06:35:31.571Z,99210.27
2018-06-18T06:38:00.091Z,99210.27
2018-06-18T06:40:28.528Z,99211.19
2018-06-18T06:42:57.342Z,99215.07
2018-06-18T06:45:25.943Z,99219.55
2018-06-18T06:47:54.474Z,99210.80
2018-06-18T06:50:22.922Z,99211.36
2018-06-18T06:52:51.406Z,99213.92
2018-06-18T06:55:19.852Z,99218.38
2018-06-18T06:57:48.215Z,99224.37
2018-06-18T07:00:16.958Z,99225.25
2018-06-18T07:02:45.512Z,99234.13
2018-06-18T07:05:13.978Z,99235.66
2018-06-18T07:07:42.669Z,99230.61
2018-06-18T07:10:11.254Z,99232.50
2018-06-18T07:12:42.016Z,99231.17
2018-06-18T07:15:10.555Z,99232.52
2018-06-18T07:17:40.750Z,99232.56
2018-06-18T07:20:09.325Z,99229.51
2018-06-18T07:22:37.846Z,99235.93
2018-06-18T07:25:06.474Z,99227.49
2018-06-18T07:27:35.086Z,99227.38
2018-06-18T07:30:03.631Z,99224.48
2018-06-18T07:32:32.098Z,99225.14
2018-06-18T07:35:00.762Z,99229.57
2018-06-18T07:37:30.037Z,99233.31
2018-06-18T07:39:59.657Z,99230.25
2018-06-18T07:42:28.503Z,99221.77
2018-06-18T07:44:57.006Z,99219.38
2018-06-18T07:47:25.456Z,99221.78
2018-06-18T07:49:53.950Z,99221.08
2018-06-18T07:52:22.575Z,99219.36
2018-06-18T07:54:51.313Z,99218.97
2018-06-18T07:57:20.050Z,99219.05
2018-06-18T07:59:48.938Z,99216.41
2018-06-18T08:02:17.586Z,99221.73
2018-06-18T08:04:50.823Z,99214.57
2018-06-18T08:09:52.915Z,99224.30
2018-06-18T08:12:21.422Z,99224.11
2018-06-18T08:14:49.909Z,99222.30
2018-06-18T08:17:18.365Z,99222.14
2018-06-18T08:19:46.915Z,99231.48
2018-06-18T08:22:15.486Z,99235.44
2018-06-18T08:24:43.950Z,99229.89
2018-06-18T08:27:12.417Z,99231.51
2018-06-18T08:29:40.895Z,99224.16
2018-06-18T08:32:09.561Z,99223.44
2018-06-18T08:34:38.153Z,99217.66
2018-06-18T08:37:06.692Z,99219.25
2018-06-18T08:39:35.146Z,99214.45
2018-06-18T08:42:03.588Z,99212.16
2018-06-18T08:44:32.153Z,99218.05
2018-06-18T08:47:00.590Z,99206.30
2018-06-18T08:49:29.046Z,99208.13
2018-06-18T08:52:02.784Z,99208.78
2018-06-18T08:54:36.735Z,99211.20
2018-06-18T08:57:10.535Z,99207.30
2018-06-18T08:59:44.070Z,99215.16
2018-06-18T09:02:12.574Z,99220.41
2018-06-18T09:04:49.292Z,99217.56
2018-06-18T09:07:21.851Z,99224.70
2018-06-18T09:09:50.318Z,99224.92
2018-06-18T09:12:18.923Z,99226.89
2018-06-18T09:14:47.346Z,99224.35
2018-06-18T09:17:15.857Z,99224.13
2018-06-18T09:19:44.391Z,99234.97
2018-06-18T09:22:12.842Z,99231.20
2018-06-18T09:24:41.414Z,99234.36
2018-06-18T09:27:13.249Z,99240.95
2018-06-18T09:29:46.845Z,99236.98
2018-06-18T09:32:15.458Z,99230.61
2018-06-18T09:34:44.411Z,99231.19
2018-06-18T09:37:12.930Z,99234.25
2018-06-18T09:39:41.475Z,99226.13
2018-06-18T09:42:10.082Z,99234.22
2018-06-18T09:44:38.527Z,99227.42
2018-06-18T09:47:07.001Z,99236.34
2018-06-18T09:49:40.763Z,99239.42
2018-06-18T09:52:14.461Z,99235.41
2018-06-18T09:54:48.226Z,99231.84
2018-06-18T09:57:26.248Z,99229.09
2018-06-18T09:59:59.615Z,99225.50
2018-06-18T10:02:28.696Z,99227.51
2018-06-18T10:04:58.619Z,99234.38
2018-06-18T10:07:27.154Z,99230.56
2018-06-18T10:09:56.286Z,99234.70
2018-06-18T10:12:24.923Z,99235.25
2018-06-18T10:14:53.302Z,99233.94
2018-06-18T10:17:21.951Z,99235.00
2018-06-18T10:19:51.402Z,99234.55
2018-06-18T10:22:19.882Z,99239.50
2018-06-18T10:24:48.347Z,99240.61
2018-06-18T10:27:16.825Z,99232.08
2018-06-18T10:29:45.490Z,99232.06
2018-06-18T10:32:19.395Z,99230.89
2018-06-18T10:34:53.033Z,99232.49
2018-06-18T10:37:26.898Z,99224.30
2018-06-18T10:40:00.781Z,99222.40
2018-06-18T10:42:34.518Z,99220.63
2018-06-18T10:45:03.002Z,99225.22
2018-06-18T10:47:31.483Z,99220.36
2018-06-18T10:50:00.054Z,99215.00
2018-06-18T10:52:28.610Z,99216.34
2018-06-18T10:54:57.175Z,99221.72
2018-06-18T10:57:25.533Z,99221.80
2018-06-18T10:59:54.015Z,99224.59
2018-06-18T11:02:22.462Z,99214.57
2018-06-18T11:04:56.281Z,99215.58
2018-06-18T11:07:24.645Z,99214.39
2018-06-18T11:09:53.108Z,99218.96
2018-06-18T11:12:21.650Z,99228.09
2018-06-18T11:14:50.119Z,99217.02
2018-06-18T11:17:24.414Z,99214.42
2018-06-18T11:19:57.850Z,99206.47
2018-06-18T11:22:31.569Z,99214.96
2018-06-18T11:25:05.583Z,99210.73
2018-06-18T11:27:34.001Z,99214.03
2018-06-18T11:30:02.502Z,99207.19
2018-06-18T11:32:30.929Z,99207.67
2018-06-18T11:34:59.407Z,99206.76
2018-06-18T11:37:27.919Z,99200.87
2018-06-18T11:39:56.335Z,99198.92
2018-06-18T11:42:24.833Z,99205.48
2018-06-18T11:44:53.308Z,99202.43
2018-06-18T11:47:21.777Z,99202.66
2018-06-18T11:49:50.565Z,99207.16
2018-06-18T11:52:18.927Z,99201.01
2018-06-18T11:54:51.388Z,99200.10
2018-06-18T11:57:19.779Z,99207.19
2018-06-18T11:59:53.674Z,99203.21
2018-06-18T12:02:27.446Z,99207.87
2018-06-18T12:05:01.234Z,99206.91
2018-06-18T12:07:34.955Z,99210.33
2018-06-18T12:10:03.451Z,99211.54
2018-06-18T12:12:31.989Z,99211.04
2018-06-18T12:15:00.563Z,99202.52
2018-06-18T12:17:28.978Z,99201.12
2018-06-18T12:19:57.426Z,99203.39
2018-06-18T12:22:25.810Z,99198.45
2018-06-18T12:24:54.480Z,99200.17
2018-06-18T12:27:26.249Z,99196.03
2018-06-18T12:29:54.670Z,99196.41
2018-06-18T12:32:23.165Z,99192.02
2018-06-18T12:34:51.598Z,99192.13
2018-06-18T12:37:20.064Z,99179.38
2018-06-18T12:39:49.228Z,99190.69
2018-06-18T12:42:17.654Z,99183.61
2018-06-18T12:44:51.630Z,99183.35
2018-06-18T12:47:25.191Z,99184.34
2018-06-18T12:49:58.967Z,99183.27
2018-06-18T12:52:32.691Z,99188.55
2018-06-18T12:55:06.522Z,99193.32
2018-06-18T12:57:34.954Z,99181.97
2018-06-18T13:00:03.503Z,99187.84
2018-06-18T13:02:35.965Z,99182.56
2018-06-18T13:05:04.410Z,99175.97
2018-06-18T13:07:32.902Z,99181.27
2018-06-18T13:10:01.439Z,99180.61
2018-06-18T13:12:29.818Z,99181.91
2018-06-18T13:14:58.311Z,99172.55
2018-06-18T13:17:26.901Z,99172.08
2018-06-18T13:19:55.355Z,99179.64
2018-06-18T13:22:23.920Z,99171.05
2018-06-18T13:24:52.355Z,99169.84
2018-06-18T13:27:25.181Z,99171.98
2018-06-18T13:29:53.916Z,99172.70
2018-06-18T13:32:22.464Z,99165.51
2018-06-18T13:34:50.981Z,99170.08
2018-06-18T13:37:24.700Z,99171.61
2018-06-18T13:39:58.517Z,99162.95
2018-06-18T13:42:32.280Z,99160.84
2018-06-18T13:45:06.187Z,99156.72
2018-06-18T13:47:39.837Z,99146.14
2018-06-18T13:50:08.352Z,99147.42
2018-06-18T13:52:36.902Z,99137.17
2018-06-18T13:55:05.838Z,99135.20
2018-06-18T13:57:34.305Z,99139.52
2018-06-18T14:00:02.761Z,99140.28
2018-06-18T14:02:31.296Z,99129.85
2018-06-18T14:04:59.899Z,99139.13
2018-06-18T14:07:28.383Z,99145.58
2018-06-18T14:09:56.947Z,99143.96
2018-06-18T14:12:25.443Z,99134.97
2018-06-18T14:14:54.170Z,99135.00
2018-06-18T14:17:22.659Z,99137.25
2018-06-18T14:19:56.231Z,99134.36
2018-06-18T14:22:24.929Z,99130.69
2018-06-18T14:24:53.671Z,99134.09
2018-06-18T14:27:22.107Z,99129.91
2018-06-18T14:29:55.976Z,99134.34
2018-06-18T14:32:29.751Z,99137.91
2018-06-18T14:35:03.300Z,99130.80
2018-06-18T14:37:37.318Z,99129.84
2018-06-18T14:40:10.026Z,99130.33
2018-06-18T14:42:38.505Z,99132.69
2018-06-18T14:45:06.902Z,99133.91
2018-06-18T14:47:36.864Z,99123.19
2018-06-18T14:50:05.586Z,99124.27
2018-06-18T14:52:34.156Z,99123.27
2018-06-18T14:55:03.111Z,99125.91
2018-06-18T14:57:31.581Z,99117.45
2018-06-18T15:00:05.898Z,99107.53
2018-06-18T15:02:34.399Z,99110.02
2018-06-18T15:05:03.160Z,99106.88
2018-06-18T15:07:31.779Z,99120.77
2018-06-18T15:10:00.275Z,99122.52
2018-06-18T15:12:31.842Z,99115.44
2018-06-18T15:15:05.917Z,99123.95
2018-06-18T15:17:34.379Z,99122.98
2018-06-18T15:20:02.832Z,99123.48
2018-06-18T15:22:32.447Z,99125.00
2018-06-18T15:25:04.368Z,99129.45
2018-06-18T15:27:32.729Z,99130.06
2018-06-18T15:30:01.141Z,99122.70
2018-06-18T15:32:29.952Z,99121.06
2018-06-18T15:35:02.251Z,99110.75
2018-06-18T15:37:30.726Z,99115.06
2018-06-18T15:39:59.228Z,99110.44
2018-06-18T15:42:27.626Z,99110.06
2018-06-18T15:44:56.059Z,99106.01
2018-06-18T15:47:24.474Z,99105.64
2018-06-18T15:49:52.899Z,99102.19
2018-06-18T15:52:21.495Z,99112.50
2018-06-18T15:54:50.274Z,99103.09
2018-06-18T15:57:18.841Z,99101.95
2018-06-18T15:59:47.288Z,99102.24
2018-06-18T16:02:15.717Z,99099.69
2018-06-18T16:04:44.238Z,99099.56
2018-06-18T16:07:12.697Z,99098.10
2018-06-18T16:09:41.182Z,99106.77
2018-06-18T16:12:09.707Z,99109.47
2018-06-18T16:14:38.421Z,99109.36
2018-06-18T16:17:07.425Z,99105.64
2018-06-18T16:19:35.874Z,99108.04
2018-06-18T16:22:04.387Z,99105.77
2018-06-18T16:24:32.990Z,99102.63
2018-06-18T16:27:01.505Z,99111.20
2018-06-18T16:29:30.003Z,99111.81
2018-06-18T16:31:58.610Z,99118.89
2018-06-18T16:34:27.267Z,99123.42
2018-06-18T16:36:55.790Z,99111.48
2018-06-18T16:39:24.278Z,99107.45
2018-06-18T16:41:52.803Z,99094.34
2018-06-18T16:44:21.287Z,99092.39
2018-06-18T16:46:49.746Z,99087.20
2018-06-18T16:49:18.262Z,99093.48
2018-06-18T16:51:46.736Z,99092.39
2018-06-18T16:54:15.238Z,99090.84
2018-06-18T16:56:43.659Z,99096.23
2018-06-18T16:59:12.131Z,99096.00
2018-06-18T17:01:40.725Z,99088.94
2018-06-18T17:04:09.230Z,99098.86
2018-06-18T17:06:41.416Z,99092.50
2018-06-18T17:09:11.177Z,99095.42
2018-06-18T17:11:39.714Z,99097.53
2018-06-18T17:14:08.727Z,99099.05
2018-06-18T17:16:37.371Z,99097.55
2018-06-18T17:19:06.131Z,99096.11
2018-06-18T17:21:34.657Z,99103.19
2018-06-18T17:24:03.154Z,99099.86
2018-06-18T17:26:31.586Z,99109.04
2018-06-18T17:29:00.001Z,99110.78
2018-06-18T17:31:28.476Z,99103.06
2018-06-18T17:33:56.962Z,99100.05
2018-06-18T17:36:25.502Z,99095.52
2018-06-18T17:38:53.950Z,99106.22
2018-06-18T17:41:22.395Z,99110.52
2018-06-18T17:43:50.830Z,99113.12
2018-06-18T17:46:19.328Z,99107.13
2018-06-18T17:48:47.858Z,99109.64
2018-06-18T17:51:16.344Z,99114.59
2018-06-18T17:53:44.761Z,99103.48
2018-06-18T17:56:13.297Z,99109.07
2018-06-18T17:58:41.810Z,99114.41
2018-06-18T18:01:10.264Z,99112.25
2018-06-18T18:03:38.715Z,99114.67
2018-06-18T18:06:07.183Z,99111.28
2018-06-18T18:08:35.666Z,99114.54
2018-06-18T18:11:04.139Z,99116.66
2018-06-18T18:13:32.644Z,99110.09
2018-06-18T18:16:01.009Z,99115.28
2018-06-18T18:18:29.482Z,99127.26
2018-06-18T18:20:58.065Z,99118.90
2018-06-18T18:23:26.689Z,99121.12
2018-06-18T18:25:55.498Z,99124.05
2018-06-18T18:28:24.020Z,99129.18
2018-06-18T18:30:52.676Z,99130.11
2018-06-18T18:33:21.097Z,99119.93
2018-06-18T18:35:49.650Z,99116.56
2018-06-18T18:38:18.087Z,99114.34
2018-06-18T18:40:46.536Z,99118.58
2018-06-18T18:43:15.090Z,99120.97
2018-06-18T18:45:43.498Z,99124.14
2018-06-18T18:48:12.058Z,99130.02
2018-06-18T18:50:40.473Z,99127.28
2018-06-18T18:53:09.040Z,99121.16
2018-06-18T18:55:50.283Z,99120.05
2018-06-18T18:58:58.942Z,99125.65
2018-06-18T19:01:28.248Z,99128.65
2018-06-18T19:03:59.617Z,99132.39
2018-06-18T19:06:28.198Z,99138.68
2018-06-18T19:08:56.585Z,99144.96
2018-06-18T19:11:25.144Z,99144.11
2018-06-18T19:13:53.509Z,99146.25
2018-06-18T19:16:22.011Z,99147.58
2018-06-18T19:18:55.241Z,99147.20
2018-06-18T19:21:23.819Z,99148.67
2018-06-18T19:23:52.314Z,99151.56
2018-06-18T19:26:20.809Z,99149.42
2018-06-18T19:28:49.301Z,99154.72
2018-06-18T19:31:20.923Z,99154.98
2018-06-18T19:34:14.606Z,99160.28
2018-06-18T19:36:52.320Z,99166.22
2018-06-18T19:39:21.946Z,99164.61
2018-06-18T19:41:50.452Z,99172.86
2018-06-18T19:44:19.079Z,99173.09
2018-06-18T19:47:24.075Z,99174.68
2018-06-18T19:49:52.698Z,99177.78
2018-06-18T19:52:21.169Z,99181.95
2018-06-18T19:54:55.263Z,99185.02
2018-06-18T19:57:23.782Z,99185.23
2018-06-18T19:59:52.221Z,99186.64
2018-06-18T20:02:20.701Z,99195.16
2018-06-18T20:04:49.394Z,99203.53
2018-06-18T20:07:18.707Z,99201.86
2018-06-18T20:09:47.339Z,99204.53
2018-06-18T20:12:15.851Z,99207.61
2018-06-18T20:14:44.419Z,99216.08
2018-06-18T20:17:12.939Z,99209.29
2018-06-18T20:19:41.459Z,99217.44
2018-06-18T20:22:09.959Z,99217.40
2018-06-18T20:24:40.171Z,99223.36
2018-06-18T20:27:08.745Z,99218.08
2018-06-18T20:29:37.422Z,99218.43
2018-06-18T20:32:06.099Z,99223.87
2018-06-18T20:34:34.489Z,99230.99
2018-06-18T20:37:02.938Z,99229.48
2018-06-18T20:39:31.382Z,99233.23
2018-06-18T20:42:00.062Z,99235.31
2018-06-18T20:44:28.846Z,99233.76
2018-06-18T20:46:57.446Z,99241.95
2018-06-18T20:49:25.983Z,99236.55
2018-06-18T20:51:54.409Z,99233.00
2018-06-18T20:54:22.928Z,99235.27
2018-06-18T20:56:51.448Z,99239.70
2018-06-18T20:59:19.870Z,99240.20
2018-06-18T21:01:48.514Z,99243.77
2018-06-18T21:04:17.181Z,99243.78
2018-06-18T21:06:45.714Z,99244.30
2018-06-18T21:09:14.192Z,99242.61
2018-06-18T21:11:42.751Z,99249.91
2018-06-18T21:14:11.858Z,99242.46
2018-06-18T21:16:43.054Z,99243.31
2018-06-18T21:19:11.591Z,99249.93
2018-06-18T21:21:40.102Z,99250.11
2018-06-18T21:24:08.598Z,99255.51
2018-06-18T21:26:37.250Z,99259.75
2018-06-18T21:29:05.705Z,99262.47
2018-06-18T21:31:34.114Z,99257.72
2018-06-18T21:34:02.666Z,99257.34
2018-06-18T21:36:31.091Z,99260.72
2018-06-18T21:38:59.698Z,99263.92
2018-06-18T21:41:28.238Z,99264.09
2018-06-18T21:43:57.739Z,99262.73
2018-06-18T21:46:26.290Z,99268.80
2018-06-18T21:48:54.699Z,99270.48
2018-06-18T21:51:23.167Z,99275.19
2018-06-18T21:53:51.853Z,99272.30
2018-06-18T21:56:20.264Z,99273.14
2018-06-18T21:58:53.127Z,99275.85
2018-06-18T22:01:34.464Z,99285.64
2018-06-18T22:04:03.263Z,99282.91
2018-06-18T22:06:31.864Z,99284.41
2018-06-18T22:09:00.292Z,99287.92
2018-06-18T22:11:28.659Z,99286.09
2018-06-18T22:13:57.242Z,99284.92
2018-06-18T22:16:25.791Z,99284.23
2018-06-18T22:18:54.260Z,99276.76
2018-06-18T22:21:22.614Z,99279.95
2018-06-18T22:23:51.070Z,99278.08
2018-06-18T22:26:22.210Z,99285.66
2018-06-18T22:28:50.686Z,99285.25
2018-06-18T22:31:19.171Z,99289.46
2018-06-18T22:33:47.694Z,99294.18
2018-06-18T22:36:16.094Z,99284.34
2018-06-18T22:38:44.517Z,99285.69
2018-06-18T22:41:12.998Z,99294.75
2018-06-18T22:43:41.674Z,99290.83
2018-06-18T22:46:10.328Z,99288.21
2018-06-18T22:48:38.780Z,99287.45
2018-06-18T22:51:07.228Z,99296.91
2018-06-18T22:53:35.658Z,99293.13
2018-06-18T22:56:04.272Z,99301.00
2018-06-18T22:58:32.807Z,99297.78
2018-06-18T23:01:01.618Z,99299.64
2018-06-18T23:03:30.004Z,99299.19
2018-06-18T23:05:58.473Z,99304.02
2018-06-18T23:08:26.978Z,99292.87
2018-06-18T23:10:55.456Z,99302.33
2018-06-18T23:13:30.103Z,99304.48
2018-06-18T23:15:58.756Z,99300.97
2018-06-18T23:18:27.174Z,99296.91
2018-06-18T23:20:55.701Z,99297.91
2018-06-18T23:23:24.317Z,99296.72
2018-06-18T23:25:52.910Z,99298.69
2018-06-18T23:28:24.634Z,99299.52
2018-06-18T23:30:53.087Z,99293.98
2018-06-18T23:33:21.567Z,99299.64
2018-06-18T23:35:50.135Z,99296.12
2018-06-18T23:38:18.582Z,99290.98
2018-06-18T23:40:47.007Z,99290.39
2018-06-18T23:43:15.446Z,99289.88
2018-06-18T23:45:43.834Z,99291.16
2018-06-18T23:48:12.305Z,99288.00
2018-06-18T23:50:41.102Z,99285.41
2018-06-18T23:53:09.514Z,99289.35
2018-06-18T23:55:38.002Z,99289.21
2018-06-18T23:58:06.485Z,99292.17
